Time;durP1;ratioP1;P1;durP2;ratioP2;P2;SDS_P1;SDS_P2;PMS_P1;PMS_P2;Temp;Humidity;BMP_temperature;BMP_pressure;BME280_temperature;BME280_humidity;BME280_pressure;Samples;Min_cycle;Max_cycle;Signal;HPM_P1;HPM_P2
2022/06/04 00:01:25;;;;;;;4.07;3.70;;;;;;;19.52;95.12;95671.44;4979211;28;20243;-85
2022/06/04 00:03:51;;;;;;;5.80;3.42;;;;;;;19.50;95.31;95673.47;4974178;28;20201;-88
2022/06/04 00:06:18;;;;;;;4.07;3.10;;;;;;;19.56;94.42;95664.75;4973911;28;20204;-87
2022/06/04 00:08:45;;;;;;;3.28;3.03;;;;;;;19.51;94.87;95670.66;4974486;28;20228;-88
2022/06/04 00:16:40;;;;;;;3.83;3.40;;;;;;;19.49;94.42;95669.25;4974671;28;20207;-87
2022/06/04 00:19:09;;;;;;;3.33;3.08;;;;;;;19.50;93.91;95673.47;4984097;28;20282;-88
2022/06/04 00:21:36;;;;;;;3.60;3.30;;;;;;;19.54;93.12;95672.00;4973807;28;20228;-86
2022/06/04 00:24:05;;;;;;;4.07;3.72;;;;;;;19.47;92.80;95674.72;4982766;28;20211;-86
2022/06/04 00:26:32;;;;;;;4.80;3.45;;;;;;;19.49;92.79;95680.50;4973279;28;20204;-88
2022/06/04 00:28:58;;;;;;;3.97;3.47;;;;;;;19.49;92.89;95680.50;4983457;28;20255;-88
2022/06/04 00:31:25;;;;;;;3.78;3.00;;;;;;;19.42;93.09;95684.28;4975478;28;20227;-86
2022/06/04 00:33:51;;;;;;;4.07;3.47;;;;;;;19.35;93.68;95684.38;4982464;28;20227;-87
2022/06/04 00:36:18;;;;;;;3.25;3.03;;;;;;;19.28;93.53;95673.25;4972581;28;20196;-85
2022/06/04 00:38:45;;;;;;;3.55;3.22;;;;;;;19.27;93.57;95671.66;4980905;28;20247;-87
2022/06/04 00:41:24;;;;;;;3.53;3.22;;;;;;;19.32;93.22;95661.34;4973638;28;20852;-88
2022/06/04 00:44:02;;;;;;;3.42;3.00;;;;;;;19.37;92.56;95652.81;4983982;28;20200;-87
2022/06/04 00:47:02;;;;;;;3.15;2.80;;;;;;;19.30;92.30;95652.94;4973699;28;20307;-86
2022/06/04 00:49:30;;;;;;;3.58;3.28;;;;;;;19.25;92.83;95651.00;4969258;28;20651;-86
2022/06/04 00:51:56;;;;;;;3.38;3.17;;;;;;;19.23;92.85;95650.47;4974041;28;20292;-86
2022/06/04 00:54:23;;;;;;;4.25;3.20;;;;;;;19.24;92.68;95646.03;4967977;28;20259;-87
2022/06/04 00:56:59;;;;;;;4.55;3.45;;;;;;;19.26;91.42;95643.97;4972698;28;20200;-86
2022/06/04 00:59:36;;;;;;;5.88;3.13;;;;;;;19.29;91.34;95646.91;4974377;28;20271;-86
2022/06/04 01:02:11;;;;;;;3.75;2.83;;;;;;;19.26;91.22;95652.59;4978083;28;20223;-86
2022/06/04 01:04:50;;;;;;;4.30;3.30;;;;;;;19.27;91.04;95648.16;4975850;28;20227;-86
2022/06/04 01:07:27;;;;;;;3.25;2.97;;;;;;;19.22;91.59;95659.31;4968229;28;20311;-87
2022/06/04 01:10:11;;;;;;;4.55;2.97;;;;;;;19.16;92.17;95652.38;4974504;28;20256;-85
2022/06/04 01:12:53;;;;;;;4.10;3.10;;;;;;;19.16;91.60;95657.59;4977974;28;20689;-86
2022/06/04 01:15:33;;;;;;;3.17;2.97;;;;;;;19.09;92.35;95663.94;4976516;28;20205;-86
2022/06/04 01:18:12;;;;;;;3.58;3.13;;;;;;;19.08;91.98;95659.75;4981708;28;20192;-86
2022/06/04 01:20:46;;;;;;;3.75;3.10;;;;;;;19.00;92.29;95650.47;4973152;28;20232;-87
2022/06/04 01:23:38;;;;;;;3.35;2.80;;;;;;;19.06;92.12;95665.19;4982063;28;20243;-88
2022/06/04 01:26:35;;;;;;;4.03;3.00;;;;;;;19.10;91.16;95663.72;4976785;28;20742;-87
2022/06/04 01:29:10;;;;;;;6.55;3.35;;;;;;;19.03;90.17;95655.25;4975967;28;20290;-86
2022/06/04 01:31:42;;;;;;;3.85;3.20;;;;;;;18.99;90.21;95661.94;4980293;28;20293;-86
2022/06/04 01:34:13;;;;;;;3.78;2.92;;;;;;;18.90;89.56;95664.06;4976059;28;20231;-86
2022/06/04 01:36:44;;;;;;;3.20;2.92;;;;;;;18.89;90.65;95664.28;4974378;28;20201;-87
2022/06/04 01:39:14;;;;;;;3.20;2.90;;;;;;;18.72;90.78;95660.75;4982321;28;20216;-85
2022/06/04 01:41:43;;;;;;;3.47;3.17;;;;;;;18.51;92.28;95651.63;4978644;28;20221;-87
2022/06/04 01:44:15;;;;;;;3.70;3.40;;;;;;;18.28;94.04;95660.19;4980193;28;20196;-87
2022/06/04 01:46:45;;;;;;;3.38;3.00;;;;;;;18.35;93.94;95660.09;4978974;28;20576;-87
2022/06/04 01:49:17;;;;;;;3.58;3.20;;;;;;;18.49;93.18;95674.53;4976465;28;20228;-86
2022/06/04 01:51:47;;;;;;;3.97;3.08;;;;;;;18.53;93.08;95671.25;4970702;28;20248;-87
2022/06/04 01:54:18;;;;;;;3.78;2.95;;;;;;;18.62;91.97;95669.94;4972993;28;20192;-87
2022/06/04 01:56:49;;;;;;;3.15;2.92;;;;;;;18.70;91.23;95681.84;4979213;28;20301;-87
2022/06/04 01:59:21;;;;;;;3.25;2.90;;;;;;;18.72;90.45;95686.84;4973150;28;20246;-87
2022/06/04 02:01:52;;;;;;;4.53;2.85;;;;;;;18.71;89.86;95685.25;4974705;28;20224;-88
2022/06/04 02:04:23;;;;;;;4.40;3.03;;;;;;;18.59;89.89;95673.00;4969781;28;20232;-86
2022/06/04 02:09:36;;;;;;;3.80;3.50;;;;;;;18.29;91.72;95673.00;4960075;28;20315;-87
2022/06/04 02:12:05;;;;;;;5.57;3.42;;;;;;;18.20;92.63;95669.13;4980638;28;20228;-88
2022/06/04 02:14:32;;;;;;;3.60;3.30;;;;;;;18.14;92.85;95661.38;4978044;28;20267;-87
2022/06/04 02:17:05;;;;;;;4.00;3.33;;;;;;;18.07;93.44;95665.91;4979827;28;20204;-88
2022/06/04 02:19:32;;;;;;;3.83;3.30;;;;;;;18.10;93.64;95668.06;4978438;28;20802;-85
2022/06/04 02:21:58;;;;;;;3.97;3.40;;;;;;;18.01;93.79;95664.97;4976720;28;20224;-86
2022/06/04 02:24:25;;;;;;;5.85;3.40;;;;;;;17.86;95.49;95659.38;4976039;28;20247;-87
2022/06/04 02:26:52;;;;;;;5.45;3.42;;;;;;;17.96;94.78;95659.63;4979387;28;20204;-87
2022/06/04 02:29:20;;;;;;;3.67;2.97;;;;;;;17.95;95.10;95658.81;4964367;28;20279;-85
2022/06/04 02:31:53;;;;;;;3.72;3.22;;;;;;;17.97;94.21;95650.78;4980764;28;20228;-87
2022/06/04 02:34:26;;;;;;;3.42;3.13;;;;;;;18.05;93.86;95658.31;4974994;28;20207;-87
2022/06/04 02:37:00;;;;;;;3.70;3.05;;;;;;;18.13;93.43;95659.78;4980329;28;20204;-86
2022/06/04 02:39:35;;;;;;;3.28;3.05;;;;;;;18.20;93.32;95663.91;4967598;28;20223;-86
2022/06/04 02:42:10;;;;;;;3.60;3.30;;;;;;;18.19;92.41;95664.94;4976805;28;20223;-87
2022/06/04 02:44:45;;;;;;;3.55;3.28;;;;;;;18.18;92.35;95663.34;4980913;28;20230;-85
2022/06/04 02:47:16;;;;;;;3.35;3.03;;;;;;;18.21;92.52;95672.53;4976533;28;20235;-85
2022/06/04 02:49:51;;;;;;;3.45;2.83;;;;;;;18.26;91.96;95660.44;4975677;28;20224;-87
2022/06/04 02:52:20;;;;;;;3.33;3.03;;;;;;;18.28;91.98;95676.63;4969291;28;20248;-87
2022/06/04 02:54:55;;;;;;;4.20;2.85;;;;;;;18.30;90.95;95671.97;4981737;28;20215;-88
2022/06/04 02:57:26;;;;;;;4.07;3.10;;;;;;;18.20;90.16;95668.31;4972130;28;20208;-87
2022/06/04 02:59:54;;;;;;;4.18;2.97;;;;;;;17.85;92.40;95653.34;4979962;28;20227;-87
2022/06/04 03:02:23;;;;;;;3.63;3.33;;;;;;;17.66;93.69;95651.00;4976835;28;20228;-86
2022/06/04 03:04:52;;;;;;;3.95;3.65;;;;;;;17.58;94.26;95652.84;4974484;28;20200;-87
2022/06/04 03:07:21;;;;;;;3.55;3.20;;;;;;;17.59;95.04;95654.44;4979779;28;20303;-85
2022/06/04 03:09:49;;;;;;;3.95;3.20;;;;;;;17.73;94.14;95656.91;4982490;28;20224;-86
2022/06/04 03:12:16;;;;;;;3.33;3.05;;;;;;;17.78;93.68;95663.06;4978124;28;20228;-88
2022/06/04 03:14:43;;;;;;;5.07;3.17;;;;;;;17.84;92.96;95664.78;4982324;28;20197;-86
2022/06/04 03:17:13;;;;;;;3.13;2.83;;;;;;;17.89;92.47;95670.16;4978901;28;20295;-87
2022/06/04 03:19:40;;;;;;;3.10;2.85;;;;;;;17.94;91.89;95677.28;4967453;28;20300;-87
2022/06/04 03:22:06;;;;;;;3.92;3.10;;;;;;;17.99;91.31;95674.03;4975338;28;20231;-87
2022/06/04 03:24:33;;;;;;;3.67;3.38;;;;;;;17.95;91.92;95676.25;4976086;28;20200;-86
2022/06/04 03:26:59;;;;;;;3.90;3.60;;;;;;;17.97;92.61;95689.88;4979779;28;20208;-87
2022/06/04 03:29:26;;;;;;;3.70;3.40;;;;;;;18.02;92.32;95689.22;4974496;28;20286;-85
2022/06/04 03:31:52;;;;;;;4.57;4.15;;;;;;;18.05;92.42;95684.38;4980710;28;20232;-87
2022/06/04 03:34:20;;;;;;;4.38;3.60;;;;;;;18.12;91.90;95674.63;4975426;28;20203;-86
2022/06/04 03:36:46;;;;;;;5.75;3.20;;;;;;;18.23;91.23;95692.16;4978304;28;20211;-86
2022/06/04 03:39:13;;;;;;;4.47;3.65;;;;;;;18.25;91.15;95687.50;4974964;28;20274;-88
2022/06/04 03:41:40;;;;;;;4.15;3.72;;;;;;;18.35;90.83;95686.16;4979678;28;20251;-87
2022/06/04 03:44:08;;;;;;;4.78;3.75;;;;;;;18.34;90.75;95676.75;4975050;28;20208;-87
2022/06/04 03:46:34;;;;;;;3.80;3.47;;;;;;;18.35;90.58;95678.34;4978725;28;20200;-87
2022/06/04 03:49:04;;;;;;;4.07;3.58;;;;;;;18.36;90.71;95672.91;4975157;28;20271;-86
2022/06/04 03:51:32;;;;;;;3.97;3.67;;;;;;;18.31;91.97;95685.81;4972068;28;20751;-85
2022/06/04 03:53:59;;;;;;;3.78;3.40;;;;;;;18.33;91.63;95685.59;4976238;28;20204;-87
2022/06/04 03:56:26;;;;;;;5.07;3.50;;;;;;;18.22;92.86;95680.13;4978045;28;20200;-87
2022/06/04 03:58:53;;;;;;;4.88;3.88;;;;;;;18.19;93.82;95693.59;4977001;28;20279;-85
2022/06/04 04:01:22;;;;;;;3.42;3.05;;;;;;;18.29;92.77;95690.44;4978394;28;20224;-86
2022/06/04 04:03:49;;;;;;;3.65;3.30;;;;;;;18.14;94.15;95697.88;4970265;28;20193;-86
2022/06/04 04:06:18;;;;;;;4.78;3.13;;;;;;;18.24;93.49;95696.34;4978701;28;20215;-87
2022/06/04 04:08:46;;;;;;;4.10;3.05;;;;;;;18.32;93.60;95694.41;4978601;28;20224;-86
2022/06/04 04:11:15;;;;;;;4.30;3.50;;;;;;;18.34;93.62;95701.00;4964480;28;20243;-87
2022/06/04 04:13:42;;;;;;;3.40;3.10;;;;;;;18.30;93.87;95713.69;4972353;28;20211;-87
2022/06/04 04:16:10;;;;;;;3.60;3.17;;;;;;;18.33;94.14;95709.84;4976342;28;20205;-86
2022/06/04 04:18:37;;;;;;;3.60;3.30;;;;;;;18.36;93.31;95711.22;4977403;28;20216;-86
2022/06/04 04:21:06;;;;;;;3.78;3.35;;;;;;;18.43;93.45;95714.53;4972912;28;20232;-88
2022/06/04 04:23:34;;;;;;;3.38;3.08;;;;;;;18.44;93.17;95710.91;4975455;28;20224;-86
2022/06/04 04:26:03;;;;;;;8.95;3.28;;;;;;;18.63;96.75;95707.25;4967009;28;20549;-88
2022/06/04 04:28:29;;;;;;;12.55;4.00;;;;;;;18.96;95.30;95704.94;4969364;28;20286;-87
2022/06/04 04:30:56;;;;;;;7.38;3.38;;;;;;;19.23;92.76;95702.69;4960620;28;20237;-89
2022/06/04 04:33:22;;;;;;;6.07;3.00;;;;;;;19.42;89.97;95698.13;4969407;28;20267;-86
2022/06/04 04:35:49;;;;;;;4.75;3.05;;;;;;;19.55;86.75;95690.06;4969145;28;20205;-87
2022/06/04 04:38:18;;;;;;;7.45;3.38;;;;;;;19.72;85.58;95697.19;4969456;28;20208;-85
2022/06/04 04:40:48;;;;;;;4.97;2.50;;;;;;;19.87;84.97;95692.25;4962020;28;20251;-85
2022/06/04 04:43:16;;;;;;;2.80;2.58;;;;;;;19.92;82.02;95687.13;4966518;28;20201;-86
2022/06/04 04:45:43;;;;;;;3.03;2.60;;;;;;;19.98;82.94;95681.00;4957122;28;20300;-83
2022/06/04 04:48:10;;;;;;;5.32;2.60;;;;;;;20.04;82.44;95680.03;4969592;28;20297;-86
2022/06/04 04:50:40;;;;;;;5.28;3.00;;;;;;;20.18;82.67;95675.34;4970127;28;20655;-88
2022/06/04 04:53:14;;;;;;;2.80;2.50;;;;;;;20.14;81.86;95674.22;4951678;29;20345;-88
2022/06/04 04:55:47;;;;;;;2.95;2.72;;;;;;;20.13;82.21;95670.03;4967517;28;20201;-87
2022/06/04 04:58:21;;;;;;;3.08;2.78;;;;;;;20.07;81.87;95676.16;4968602;28;20204;-88
2022/06/04 05:00:56;;;;;;;4.80;2.70;;;;;;;20.01;82.63;95678.69;4969415;28;20227;-88
2022/06/04 05:03:23;;;;;;;4.13;3.00;;;;;;;19.94;82.53;95679.88;4966379;28;20205;-88
2022/06/04 05:05:58;;;;;;;4.88;3.10;;;;;;;19.94;83.39;95685.88;4968889;28;20273;-88
2022/06/04 05:08:24;;;;;;;4.50;2.90;;;;;;;19.94;83.84;95685.09;4974542;28;20242;-87
2022/06/04 05:10:56;;;;;;;3.45;2.97;;;;;;;19.92;84.06;95690.53;4968119;28;20229;-89
2022/06/04 05:13:24;;;;;;;2.65;2.45;;;;;;;19.94;84.82;95696.34;4959815;28;20361;-87
2022/06/04 05:15:51;;;;;;;3.40;2.65;;;;;;;19.97;84.94;95701.09;4965511;28;20201;-88
2022/06/04 05:18:19;;;;;;;3.35;3.00;;;;;;;20.02;84.23;95709.03;4967668;28;20205;-87
2022/06/04 05:20:46;;;;;;;3.55;3.13;;;;;;;19.97;85.07;95711.56;4968942;28;20312;-83
2022/06/04 05:23:12;;;;;;;4.28;2.70;;;;;;;20.01;85.34;95709.28;4970296;28;20238;-87
2022/06/04 05:25:38;;;;;;;4.10;2.88;;;;;;;20.03;85.63;95712.44;4975380;28;20201;-87
2022/06/04 05:28:06;;;;;;;4.43;3.10;;;;;;;20.04;85.09;95708.78;4970657;28;20204;-86
2022/06/04 05:30:33;;;;;;;4.22;3.00;;;;;;;20.06;85.70;95698.91;4969888;28;20309;-86
2022/06/04 05:33:01;;;;;;;4.32;3.13;;;;;;;20.06;86.37;95704.13;4970485;28;20208;-87
2022/06/04 05:35:27;;;;;;;5.30;2.88;;;;;;;20.14;85.89;95701.16;4974262;28;20236;-87
2022/06/04 05:37:55;;;;;;;4.25;3.10;;;;;;;20.17;85.84;95702.50;4964528;28;20207;-87
2022/06/04 05:40:21;;;;;;;4.30;2.65;;;;;;;20.24;85.57;95703.16;4961398;28;20233;-87
2022/06/04 05:42:50;;;;;;;2.88;2.38;;;;;;;20.32;84.48;95700.19;4979341;28;20200;-87
2022/06/04 05:45:17;;;;;;;3.53;2.50;;;;;;;20.38;84.61;95701.88;4970206;28;20196;-87
2022/06/04 05:47:45;;;;;;;3.13;2.47;;;;;;;20.43;84.67;95701.97;4968785;28;20338;-87
2022/06/04 05:50:12;;;;;;;3.85;2.72;;;;;;;20.50;84.61;95693.97;4973220;28;20224;-87
2022/06/04 05:52:38;;;;;;;3.00;2.50;;;;;;;20.53;84.83;95691.69;4974886;28;20196;-86
2022/06/04 05:55:05;;;;;;;2.90;2.60;;;;;;;20.62;84.75;95705.16;4968138;28;20213;-87
2022/06/04 05:57:32;;;;;;;3.72;2.80;;;;;;;20.64;85.16;95703.91;4960244;28;20204;-87
2022/06/04 05:59:58;;;;;;;5.53;2.50;;;;;;;20.67;85.34;95711.28;4970931;28;20228;-86
2022/06/04 06:02:27;;;;;;;4.00;2.55;;;;;;;20.73;84.53;95709.56;4972425;28;20194;-86
2022/06/04 06:04:55;;;;;;;3.75;2.75;;;;;;;20.78;84.85;95712.25;4964338;28;20207;-88
2022/06/04 06:07:23;;;;;;;3.92;2.70;;;;;;;20.84;83.93;95713.13;4974075;28;20283;-87
2022/06/04 06:09:50;;;;;;;2.60;2.40;;;;;;;20.90;83.75;95712.97;4969979;28;20278;-87
2022/06/04 06:12:18;;;;;;;3.45;2.50;;;;;;;20.99;83.09;95714.16;4970872;28;20307;-88
2022/06/04 06:14:45;;;;;;;3.10;2.75;;;;;;;21.09;82.58;95716.13;4971796;28;20210;-87
2022/06/04 06:17:12;;;;;;;3.90;2.42;;;;;;;21.10;81.65;95720.34;4975689;28;20571;-88
2022/06/04 06:19:40;;;;;;;4.35;2.97;;;;;;;21.16;82.26;95727.25;4967533;28;20279;-87
2022/06/04 06:22:11;;;;;;;2.95;2.50;;;;;;;21.20;82.06;95731.00;4974960;28;20223;-87
2022/06/04 06:24:38;;;;;;;3.10;2.85;;;;;;;21.20;81.33;95731.00;4971367;28;20200;-87
2022/06/04 06:27:07;;;;;;;2.97;2.30;;;;;;;21.23;82.10;95742.81;4968576;28;20216;-86
2022/06/04 06:29:33;;;;;;;3.13;2.50;;;;;;;21.23;83.24;95751.47;4969737;28;20757;-86
2022/06/04 06:32:01;;;;;;;4.80;2.40;;;;;;;21.20;83.44;95754.56;4973729;28;20224;-87
2022/06/04 06:34:28;;;;;;;3.78;2.78;;;;;;;21.24;84.02;95766.16;4974690;28;20204;-88
2022/06/04 06:36:56;;;;;;;4.13;2.55;;;;;;;21.30;84.35;95767.03;4974920;28;20208;-88
2022/06/04 06:39:24;;;;;;;4.63;2.50;;;;;;;21.33;85.10;95766.56;4969067;28;20220;-87
2022/06/04 06:41:51;;;;;;;4.13;2.83;;;;;;;21.35;85.46;95762.66;4960654;28;20225;-87
2022/06/04 06:44:17;;;;;;;3.05;2.67;;;;;;;21.42;85.37;95764.31;4966978;28;20208;-88
2022/06/04 06:46:51;;;;;;;4.75;2.78;;;;;;;21.45;84.74;95758.59;4972321;28;20204;-88
2022/06/04 06:49:20;;;;;;;3.92;2.80;;;;;;;21.47;84.71;95767.00;4964808;28;20228;-88
2022/06/04 06:51:49;;;;;;;3.47;3.10;;;;;;;21.49;84.71;95773.59;4961309;28;20229;-88
2022/06/04 06:54:17;;;;;;;3.90;2.70;;;;;;;21.52;84.35;95775.75;4971070;28;20291;-87
2022/06/04 06:56:47;;;;;;;5.15;2.80;;;;;;;21.58;84.47;95771.34;4962517;28;20280;-87
2022/06/04 06:59:13;;;;;;;3.80;2.67;;;;;;;21.63;85.01;95772.22;4973110;28;20274;-86
2022/06/04 07:01:42;;;;;;;3.20;2.75;;;;;;;21.70;85.26;95782.56;4973714;28;20239;-86
2022/06/04 07:04:08;;;;;;;4.05;2.67;;;;;;;21.71;85.93;95773.66;4975589;28;20208;-86
2022/06/04 07:06:37;;;;;;;3.20;2.60;;;;;;;21.73;84.73;95781.28;4973046;28;20204;-86
2022/06/04 07:09:06;;;;;;;4.03;2.75;;;;;;;21.70;84.66;95801.69;4963288;28;20724;-87
2022/06/04 07:11:33;;;;;;;4.70;2.30;;;;;;;21.61;82.93;95795.25;4959092;28;20222;-85
2022/06/04 07:14:02;;;;;;;3.75;2.20;;;;;;;21.54;82.76;95802.50;4967309;28;20196;-85
2022/06/04 07:16:29;;;;;;;5.05;2.50;;;;;;;21.54;83.55;95796.47;4969596;28;20682;-86
2022/06/04 07:19:00;;;;;;;3.42;2.30;;;;;;;21.51;83.36;95799.56;4963965;28;20220;-87
2022/06/04 07:21:28;;;;;;;5.07;2.42;;;;;;;21.57;84.08;95809.06;4957613;28;20259;-88
2022/06/04 07:23:56;;;;;;;2.55;2.28;;;;;;;21.56;85.76;95824.00;4976882;28;20207;-87
2022/06/04 07:26:23;;;;;;;5.60;2.67;;;;;;;21.58;87.31;95856.00;4967916;28;20252;-87
2022/06/04 07:28:49;;;;;;;4.85;2.53;;;;;;;21.56;89.41;95880.84;4976206;28;20228;-86
2022/06/04 07:31:19;;;;;;;3.55;2.55;;;;;;;21.50;87.33;95874.75;4966598;28;20243;-86
2022/06/04 07:33:47;;;;;;;2.88;2.25;;;;;;;21.55;88.27;95874.06;4972197;28;20211;-86
2022/06/04 07:36:16;;;;;;;3.17;1.80;;;;;;;21.52;82.82;95877.16;4973868;28;20205;-87
2022/06/04 07:38:44;;;;;;;2.85;1.90;;;;;;;21.58;82.75;95873.56;4967068;28;20216;-87
2022/06/04 07:41:16;;;;;;;3.78;1.77;;;;;;;21.52;79.35;95870.09;4971394;28;20228;-87
2022/06/04 07:43:42;;;;;;;1.90;1.70;;;;;;;21.60;80.60;95861.00;4966212;28;20208;-86
2022/06/04 07:46:09;;;;;;;2.33;1.58;;;;;;;21.55;77.88;95856.47;4968559;28;20204;-87
2022/06/04 07:48:37;;;;;;;2.63;1.60;;;;;;;21.50;76.97;95848.56;4966741;28;20228;-88
2022/06/04 07:51:04;;;;;;;2.20;1.80;;;;;;;21.35;76.31;95840.47;4961619;28;20239;-87
2022/06/04 07:53:30;;;;;;;3.05;1.70;;;;;;;21.27;77.45;95848.69;4958565;28;20228;-87
2022/06/04 07:55:57;;;;;;;4.13;1.90;;;;;;;21.25;78.95;95846.31;4969408;28;20204;-86
2022/06/04 07:58:23;;;;;;;3.90;1.58;;;;;;;21.16;78.40;95852.16;4967649;28;20208;-87
2022/06/04 08:00:55;;;;;;;1.73;1.63;;;;;;;20.98;78.13;95861.78;4971721;28;20224;-88
2022/06/04 08:03:21;;;;;;;4.28;2.10;;;;;;;20.96;79.46;95855.22;4974051;28;20201;-87
2022/06/04 08:05:51;;;;;;;3.33;2.00;;;;;;;20.99;79.95;95846.88;4969391;28;20200;-87
2022/06/04 08:08:18;;;;;;;2.20;1.63;;;;;;;20.94;79.67;95844.19;4972134;28;20841;-86
2022/06/04 08:10:46;;;;;;;2.30;1.75;;;;;;;21.02;80.65;95833.31;4973411;28;20236;-87
2022/06/04 08:13:13;;;;;;;3.58;1.90;;;;;;;21.09;79.55;95826.13;4969241;28;20208;-87
2022/06/04 08:15:42;;;;;;;2.05;1.80;;;;;;;21.17;78.35;95822.28;4972058;28;20228;-87
2022/06/04 08:18:10;;;;;;;3.75;2.03;;;;;;;21.27;78.29;95812.81;4969959;28;20204;-87
2022/06/04 08:20:41;;;;;;;2.28;1.88;;;;;;;21.29;76.36;95808.16;4976126;28;20235;-86
2022/06/04 08:23:09;;;;;;;3.60;1.98;;;;;;;21.33;76.45;95811.09;4968246;28;20200;-88
2022/06/04 08:25:38;;;;;;;4.07;2.05;;;;;;;21.48;76.92;95798.22;4974963;28;20275;-88
2022/06/04 08:28:05;;;;;;;2.25;1.88;;;;;;;21.64;76.25;95794.78;4967143;28;21912;-87
2022/06/04 08:30:31;;;;;;;4.93;1.90;;;;;;;21.73;74.37;95778.66;4970940;28;20232;-87
2022/06/04 08:32:58;;;;;;;2.10;1.90;;;;;;;21.79;73.25;95778.47;4975756;28;20211;-88
2022/06/04 08:35:24;;;;;;;2.85;2.00;;;;;;;21.85;72.34;95779.34;4977904;28;20200;-86
2022/06/04 08:37:51;;;;;;;2.10;1.88;;;;;;;21.90;72.33;95769.72;4981070;28;20204;-87
2022/06/04 08:40:28;;;;;;;3.15;1.88;;;;;;;22.01;70.98;95762.78;4964139;28;20220;-88
2022/06/04 08:43:07;;;;;;;3.55;1.92;;;;;;;22.11;72.55;95754.28;4974098;28;20220;-87
2022/06/04 08:45:34;;;;;;;2.50;1.80;;;;;;;22.23;72.18;95752.31;4977290;28;20207;-88
2022/06/04 08:48:00;;;;;;;3.15;1.80;;;;;;;22.32;70.44;95750.84;4975353;28;20696;-88
2022/06/04 08:50:34;;;;;;;3.85;2.40;;;;;;;22.49;70.04;95753.38;4967233;28;20232;-87
2022/06/04 08:53:03;;;;;;;3.28;2.42;;;;;;;22.60;68.20;95766.34;4978374;28;20202;-88
2022/06/04 08:58:40;;;;;;;5.13;2.00;;;;;;;22.53;65.65;95765.75;4970493;28;20207;-88
2022/06/04 09:01:11;;;;;;;4.32;2.00;;;;;;;22.50;68.20;95761.00;4971342;28;20287;-86
2022/06/04 09:03:48;;;;;;;1.88;1.70;;;;;;;22.46;67.70;95753.88;4967212;28;20205;-86
2022/06/04 09:06:27;;;;;;;1.85;1.70;;;;;;;22.51;66.42;95752.09;4978399;28;20287;-86
2022/06/04 09:09:03;;;;;;;3.45;1.98;;;;;;;22.74;65.34;95748.34;4980195;28;20611;-87
2022/06/04 09:11:44;;;;;;;2.45;1.70;;;;;;;23.01;64.80;95758.88;4969811;28;20292;-87
2022/06/04 09:14:42;;;;;;;1.90;1.70;;;;;;;23.28;63.82;95761.47;4969843;28;20208;-87
2022/06/04 09:17:14;;;;;;;3.05;2.00;;;;;;;23.47;65.06;95760.03;4969011;28;20485;-88
2022/06/04 09:19:43;;;;;;;2.55;1.80;;;;;;;23.43;63.36;95751.84;4966066;28;20228;-88
2022/06/04 09:22:19;;;;;;;3.15;1.90;;;;;;;23.40;62.23;95757.59;4962308;28;20708;-87
2022/06/04 09:24:45;;;;;;;1.50;1.40;;;;;;;23.34;60.19;95755.97;4979148;28;20196;-87
2022/06/04 09:27:28;;;;;;;2.75;1.90;;;;;;;23.33;61.41;95764.91;4983503;28;20216;-86
2022/06/04 09:30:09;;;;;;;3.75;1.88;;;;;;;23.45;62.19;95767.38;4982863;28;20243;-87
2022/06/04 09:32:46;;;;;;;3.92;1.50;;;;;;;23.28;60.45;95769.34;4983334;28;20231;-87
2022/06/04 09:35:16;;;;;;;1.63;1.50;;;;;;;23.31;62.15;95767.00;4982836;28;20297;-86
2022/06/04 09:37:45;;;;;;;2.65;1.55;;;;;;;23.55;62.31;95772.72;4983538;28;20208;-88
2022/06/04 09:40:20;;;;;;;3.38;1.55;;;;;;;23.86;61.15;95772.91;4981771;28;20223;-86
2022/06/04 09:42:48;;;;;;;1.58;1.45;;;;;;;24.15;58.73;95768.03;4983479;28;20215;-87
2022/06/04 09:45:29;;;;;;;1.77;1.67;;;;;;;24.38;58.24;95767.63;4982350;28;20208;-88
2022/06/04 09:47:58;;;;;;;3.38;1.88;;;;;;;24.66;58.75;95775.06;4983703;28;20208;-86
2022/06/04 09:50:28;;;;;;;2.10;1.88;;;;;;;25.05;60.13;95764.84;4982533;28;20243;-87
2022/06/04 09:53:01;;;;;;;2.72;1.90;;;;;;;25.15;56.75;95760.66;4967762;28;20232;-86
2022/06/04 09:55:28;;;;;;;4.10;1.92;;;;;;;25.20;57.78;95768.56;4963482;29;20702;-87
2022/06/04 09:57:59;;;;;;;3.70;1.80;;;;;;;25.32;58.75;95764.59;4963519;29;20228;-87
2022/06/04 10:00:28;;;;;;;3.22;1.92;;;;;;;25.20;59.27;95758.81;4962134;28;20240;-88
2022/06/04 10:02:56;;;;;;;4.97;1.90;;;;;;;24.96;58.60;95763.81;4963794;29;20208;-87
2022/06/04 10:05:25;;;;;;;1.88;1.77;;;;;;;24.79;57.73;95773.78;4961783;29;20204;-86
2022/06/04 10:07:52;;;;;;;2.63;2.00;;;;;;;25.08;55.93;95764.34;4962104;29;20216;-86
2022/06/04 10:10:27;;;;;;;3.58;2.00;;;;;;;25.07;55.69;95770.66;4962364;28;20247;-87
2022/06/04 10:15:44;;;;;;;1.98;1.88;;;;;;;25.26;58.77;95756.94;4961679;29;20724;-87
2022/06/04 10:18:23;;;;;;;3.15;2.10;;;;;;;25.50;55.68;95750.06;4961479;29;20837;-87
2022/06/04 10:20:56;;;;;;;2.35;2.13;;;;;;;25.68;54.54;95749.53;4961940;28;20232;-88
2022/06/04 10:23:23;;;;;;;3.58;2.15;;;;;;;26.02;56.64;95747.06;4962457;28;20296;-87
2022/06/04 10:26:11;;;;;;;2.67;2.00;;;;;;;26.33;54.64;95745.13;4962173;28;20260;-87
2022/06/04 10:28:48;;;;;;;2.60;2.03;;;;;;;26.55;56.41;95744.75;4960577;28;20660;-87
2022/06/04 10:31:26;;;;;;;3.15;2.10;;;;;;;26.63;54.31;95744.16;4960699;28;20240;-87
2022/06/04 10:34:03;;;;;;;3.03;2.05;;;;;;;26.70;54.24;95747.28;4963060;29;20382;-87
2022/06/04 10:36:46;;;;;;;2.22;2.03;;;;;;;26.77;55.32;95753.03;4963067;28;20227;-87
2022/06/04 10:39:25;;;;;;;3.95;2.38;;;;;;;26.97;55.89;95752.13;4962592;28;20287;-87
2022/06/04 10:41:56;;;;;;;2.67;2.30;;;;;;;27.07;56.20;95752.06;4960980;28;20240;-88
2022/06/04 10:44:43;;;;;;;3.33;2.28;;;;;;;27.22;54.01;95750.38;4961723;29;20205;-87
2022/06/04 10:47:26;;;;;;;3.40;2.10;;;;;;;27.26;55.94;95744.25;4961437;28;20215;-87
2022/06/04 10:50:17;;;;;;;2.58;1.90;;;;;;;27.25;52.89;95744.53;4962132;28;20229;-87
2022/06/04 10:52:46;;;;;;;4.07;2.42;;;;;;;27.22;52.01;95742.44;4961291;29;20232;-86
2022/06/04 10:55:20;;;;;;;3.17;2.20;;;;;;;27.37;51.86;95737.78;4962003;29;20209;-87
2022/06/04 10:57:54;;;;;;;6.35;2.50;;;;;;;27.45;53.37;95734.56;4960012;29;20200;-88
2022/06/04 11:00:24;;;;;;;3.78;2.47;;;;;;;27.56;52.47;95727.28;4960812;28;20636;-88
2022/06/04 11:02:58;;;;;;;3.83;2.45;;;;;;;27.66;50.87;95729.88;4960814;28;20220;-87
2022/06/04 11:05:28;;;;;;;3.03;2.17;;;;;;;27.71;52.65;95721.09;4968662;28;20196;-88
2022/06/04 11:08:02;;;;;;;4.25;2.28;;;;;;;27.83;51.96;95724.16;4977498;28;20204;-88
2022/06/04 11:10:33;;;;;;;4.13;2.50;;;;;;;27.81;52.13;95727.06;4971975;28;20577;-89
2022/06/04 11:13:08;;;;;;;2.03;1.90;;;;;;;27.87;50.95;95724.38;4974076;28;20251;-89
2022/06/04 11:15:40;;;;;;;2.50;2.30;;;;;;;27.85;50.33;95720.16;4975904;28;20773;-89
2022/06/04 11:18:14;;;;;;;4.30;2.42;;;;;;;27.94;50.27;95714.22;4965914;28;20720;-87
2022/06/04 11:20:47;;;;;;;2.78;2.22;;;;;;;27.78;50.49;95709.09;4978507;28;20235;-88
2022/06/04 11:23:29;;;;;;;4.28;2.50;;;;;;;27.90;50.25;95714.00;4979988;28;20235;-88
2022/06/04 11:26:02;;;;;;;2.70;2.50;;;;;;;27.91;50.47;95706.84;4982875;28;20208;-88
2022/06/04 11:28:30;;;;;;;2.47;2.28;;;;;;;27.99;49.19;95700.91;4972362;28;20219;-88
2022/06/04 11:31:09;;;;;;;3.92;2.80;;;;;;;28.03;49.68;95702.72;4980111;28;20259;-88
2022/06/04 11:33:55;;;;;;;3.28;2.40;;;;;;;28.11;49.91;95694.13;4978818;28;20200;-88
2022/06/04 11:36:28;;;;;;;3.38;2.30;;;;;;;28.11;50.36;95694.13;4971421;28;20721;-87
2022/06/04 11:39:08;;;;;;;2.45;2.25;;;;;;;28.23;50.44;95699.06;4974917;28;20220;-88
2022/06/04 11:41:42;;;;;;;4.60;2.55;;;;;;;28.21;49.46;95698.56;4974256;28;20224;-88
2022/06/04 11:44:22;;;;;;;2.53;2.33;;;;;;;28.22;49.58;95696.69;4960490;28;20208;-88
2022/06/04 11:46:59;;;;;;;3.17;2.30;;;;;;;28.31;50.33;95694.97;4969207;28;20204;-87
2022/06/04 11:49:35;;;;;;;4.10;2.35;;;;;;;28.36;50.94;95701.00;4977616;28;20224;-87
2022/06/04 11:52:22;;;;;;;4.28;2.30;;;;;;;28.44;48.79;95697.72;4974894;28;20236;-88
2022/06/04 11:55:26;;;;;;;3.08;2.75;;;;;;;28.44;49.81;95699.56;4974165;28;20250;-87
2022/06/04 11:58:31;;;;;;;4.55;2.75;;;;;;;28.48;49.72;95698.69;4970291;28;20231;-87
2022/06/04 12:01:08;;;;;;;4.28;2.78;;;;;;;28.58;50.50;95699.63;4965623;28;20227;-88
2022/06/04 12:03:53;;;;;;;3.53;2.30;;;;;;;28.60;48.70;95692.97;4981973;28;20208;-88
2022/06/04 12:06:24;;;;;;;2.75;2.47;;;;;;;28.45;48.11;95680.75;4975757;28;20201;-88